createdAt,value
2019-02-03T00:00:44.811Z,57.80
2019-02-03T00:03:12.757Z,54.87
2019-02-03T00:05:40.716Z,51.60
2019-02-03T00:08:08.401Z,48.23
2019-02-03T00:10:36.405Z,48.03
2019-02-03T00:13:04.425Z,52.63
2019-02-03T00:15:32.101Z,45.97
2019-02-03T00:18:00.401Z,46.47
2019-02-03T00:20:28.366Z,47.40
2019-02-03T00:22:56.369Z,52.53
2019-02-03T00:25:24.647Z,55.97
2019-02-03T00:27:52.569Z,47.70
2019-02-03T00:30:20.245Z,54.43
2019-02-03T00:32:51.423Z,52.00
2019-02-03T00:35:18.383Z,57.20
2019-02-03T00:37:46.877Z,59.80
2019-02-03T00:40:14.996Z,51.87
2019-02-03T00:42:42.953Z,57.07
2019-02-03T00:45:11.203Z,56.40
2019-02-03T00:47:39.405Z,57.47
2019-02-03T00:50:08.013Z,63.13
2019-02-03T00:52:35.664Z,60.63
2019-02-03T00:55:04.426Z,61.60
2019-02-03T00:57:32.617Z,55.53
2019-02-03T01:00:00.848Z,63.90
2019-02-03T01:02:29.142Z,61.20
2019-02-03T01:04:57.162Z,64.70
2019-02-03T01:07:27.493Z,64.53
2019-02-03T01:09:54.801Z,55.77
2019-02-03T01:12:23.021Z,53.53
2019-02-03T01:14:51.204Z,56.83
2019-02-03T01:17:19.541Z,52.10
2019-02-03T01:19:47.261Z,61.30
2019-02-03T01:22:15.495Z,56.43
2019-02-03T01:24:43.430Z,57.90
2019-02-03T01:27:11.085Z,58.17
2019-02-03T01:29:38.765Z,55.10
2019-02-03T01:32:06.669Z,59.60
2019-02-03T01:34:34.877Z,56.50
2019-02-03T01:37:03.085Z,61.97
2019-02-03T01:39:31.001Z,58.93
2019-02-03T01:41:59.460Z,71.13
2019-02-03T01:44:27.456Z,60.90
2019-02-03T01:46:55.661Z,61.37
2019-02-03T01:49:23.337Z,57.33
2019-02-03T01:51:51.265Z,58.07
2019-02-03T01:54:19.266Z,64.87
2019-02-03T01:56:47.704Z,54.53
2019-02-03T01:59:16.134Z,53.47
2019-02-03T02:01:44.145Z,59.60
2019-02-03T02:04:11.892Z,58.60
2019-02-03T02:06:40.181Z,53.50
2019-02-03T02:09:08.332Z,59.07
2019-02-03T02:11:36.357Z,57.90
2019-02-03T02:14:04.769Z,49.10
2019-02-03T02:16:32.732Z,61.10
2019-02-03T02:19:00.658Z,53.43
2019-02-03T02:21:28.338Z,60.97
2019-02-03T02:23:56.266Z,56.60
2019-02-03T02:26:24.201Z,57.40
2019-02-03T02:28:51.873Z,54.83
2019-02-03T02:31:19.792Z,53.40
2019-02-03T02:33:47.741Z,54.33
2019-02-03T02:36:15.394Z,57.93
2019-02-03T02:38:43.330Z,59.23
2019-02-03T02:41:10.990Z,53.77
2019-02-03T02:43:38.925Z,52.97
2019-02-03T02:46:06.593Z,54.90
2019-02-03T02:48:34.877Z,55.10
2019-02-03T02:51:02.899Z,55.23
2019-02-03T02:53:30.875Z,53.17
2019-02-03T02:55:58.611Z,55.57
2019-02-03T02:58:26.787Z,51.40
2019-02-03T03:00:54.434Z,55.13
2019-02-03T03:03:22.714Z,54.40
2019-02-03T03:05:51.226Z,63.17
2019-02-03T03:08:19.885Z,63.50
2019-02-03T03:10:48.251Z,61.70
2019-02-03T03:13:16.181Z,60.37
2019-02-03T03:15:44.338Z,62.70
2019-02-03T03:18:12.001Z,54.97
2019-02-03T03:20:40.174Z,55.37
2019-02-03T03:23:08.505Z,59.63
2019-02-03T03:25:36.685Z,66.70
2019-02-03T03:28:04.352Z,54.63
2019-02-03T03:30:32.346Z,61.83
2019-02-03T03:33:00.357Z,59.53
2019-02-03T03:35:28.564Z,54.77
2019-02-03T03:37:56.805Z,62.80
2019-02-03T03:40:25.770Z,64.33
2019-02-03T03:42:53.941Z,58.40
2019-02-03T03:45:22.272Z,63.03
2019-02-03T03:47:50.261Z,55.50
2019-02-03T03:50:18.718Z,57.73
2019-02-03T03:52:46.929Z,64.00
2019-02-03T03:55:14.605Z,62.40
2019-02-03T03:57:42.494Z,57.60
2019-02-03T04:00:15.135Z,66.43
2019-02-03T04:02:42.860Z,66.40
2019-02-03T04:05:10.906Z,64.00
2019-02-03T04:07:39.133Z,64.90
2019-02-03T04:10:07.709Z,64.37
2019-02-03T04:12:36.221Z,58.33
2019-02-03T04:15:04.954Z,62.17
2019-02-03T04:17:32.877Z,66.00
2019-02-03T04:20:01.062Z,57.97
2019-02-03T04:22:29.344Z,56.13
2019-02-03T04:24:57.301Z,67.40
2019-02-03T04:27:25.472Z,61.07
2019-02-03T04:29:53.127Z,68.20
2019-02-03T04:32:20.800Z,67.47
2019-02-03T04:34:48.765Z,70.47
2019-02-03T04:37:16.940Z,61.03
2019-02-03T04:39:44.833Z,65.47
2019-02-03T04:42:13.186Z,69.27
2019-02-03T04:44:41.388Z,63.07
2019-02-03T04:47:09.901Z,67.33
2019-02-03T04:49:38.087Z,69.23
2019-02-03T04:52:06.346Z,71.83
2019-02-03T04:54:34.061Z,67.17
2019-02-03T04:57:02.082Z,67.17
2019-02-03T04:59:30.064Z,72.43
2019-02-03T05:01:58.298Z,74.13
2019-02-03T05:04:26.506Z,73.53
2019-02-03T05:06:54.156Z,72.03
2019-02-03T05:09:22.106Z,66.73
2019-02-03T05:11:50.290Z,69.23
2019-02-03T05:14:18.463Z,74.30
2019-02-03T05:16:46.523Z,82.73
2019-02-03T05:19:14.545Z,76.93
2019-02-03T05:21:42.470Z,80.37
2019-02-03T05:24:10.128Z,72.67
2019-02-03T05:26:37.802Z,70.60
2019-02-03T05:29:05.708Z,70.73
2019-02-03T05:31:33.661Z,92.47
2019-02-03T05:34:01.408Z,78.87
2019-02-03T05:36:29.859Z,67.87
2019-02-03T05:38:57.524Z,78.77
2019-02-03T05:41:25.470Z,77.20
2019-02-03T05:43:53.710Z,77.33
2019-02-03T05:46:21.728Z,70.83
2019-02-03T05:48:50.033Z,77.70
2019-02-03T05:51:18.680Z,77.30
2019-02-03T05:53:46.884Z,79.47
2019-02-03T05:56:15.099Z,84.20
2019-02-03T05:58:43.040Z,75.50
2019-02-03T06:01:11.897Z,88.97
2019-02-03T06:03:39.570Z,88.73
2019-02-03T06:06:07.633Z,84.57
2019-02-03T06:08:36.137Z,86.50
2019-02-03T06:11:04.512Z,80.63
2019-02-03T06:13:32.733Z,73.27
2019-02-03T06:16:02.259Z,83.00
2019-02-03T06:18:30.467Z,71.37
2019-02-03T06:20:58.938Z,85.37
2019-02-03T06:23:26.606Z,83.13
2019-02-03T06:25:54.851Z,76.50
2019-02-03T06:28:23.140Z,80.33
2019-02-03T06:31:09.449Z,77.07
2019-02-03T06:33:37.651Z,73.10
2019-02-03T06:36:06.016Z,80.83
2019-02-03T06:38:34.225Z,77.27
2019-02-03T06:41:02.164Z,76.33
2019-02-03T06:43:30.371Z,78.43
2019-02-03T06:46:20.011Z,82.17
2019-02-03T06:48:48.250Z,128.03
2019-02-03T06:51:16.445Z,74.57
2019-02-03T06:53:44.402Z,74.13
2019-02-03T06:56:12.333Z,69.20
2019-02-03T06:58:40.537Z,89.20
2019-02-03T07:01:08.190Z,66.10
2019-02-03T07:03:36.393Z,72.53
2019-02-03T07:06:04.348Z,67.80
2019-02-03T07:08:32.273Z,74.37
2019-02-03T07:11:00.172Z,74.80
2019-02-03T07:13:28.222Z,73.83
2019-02-03T07:15:56.649Z,70.33
2019-02-03T07:18:24.348Z,81.10
2019-02-03T07:20:52.346Z,294.17
2019-02-03T07:23:20.711Z,80.37
2019-02-03T07:25:48.496Z,105.43
2019-02-03T07:28:16.616Z,64.60
2019-02-03T07:30:44.264Z,81.17
2019-02-03T07:33:11.928Z,94.97
2019-02-03T07:35:40.386Z,71.70
2019-02-03T07:38:10.551Z,78.87
2019-02-03T07:40:41.741Z,70.20
2019-02-03T07:43:10.953Z,72.73
2019-02-03T07:45:41.376Z,72.53
2019-02-03T07:48:12.284Z,70.30
2019-02-03T07:50:40.484Z,74.77
2019-02-03T07:53:08.801Z,65.97
2019-02-03T07:55:36.592Z,100.40
2019-02-03T07:58:04.424Z,84.63
2019-02-03T08:00:32.287Z,62.97
2019-02-03T08:02:59.958Z,64.57
2019-02-03T08:05:27.643Z,61.80
2019-02-03T08:07:55.553Z,67.27
2019-02-03T08:10:28.125Z,63.50
2019-02-03T08:12:52.677Z,66.90
2019-02-03T08:15:20.877Z,64.37
2019-02-03T08:17:48.831Z,70.67
2019-02-03T08:20:16.827Z,71.00
2019-02-03T08:22:44.535Z,60.27
2019-02-03T08:25:12.700Z,67.40
2019-02-03T08:27:40.354Z,59.77
2019-02-03T08:30:10.333Z,55.63
2019-02-03T08:32:38.249Z,61.63
2019-02-03T08:35:06.010Z,65.50
2019-02-03T08:37:35.481Z,93.43
2019-02-03T08:40:03.246Z,58.47
2019-02-03T08:42:31.178Z,57.73
2019-02-03T08:44:59.042Z,53.93
2019-02-03T08:47:27.298Z,50.93
2019-02-03T08:49:55.778Z,49.20
2019-02-03T08:52:23.768Z,63.23
2019-02-03T08:54:58.357Z,53.47
2019-02-03T08:57:21.932Z,46.97
2019-02-03T08:59:49.940Z,43.83
2019-02-03T09:02:17.730Z,47.60
2019-02-03T09:04:46.074Z,44.60
2019-02-03T09:07:14.097Z,46.17
2019-02-03T09:09:41.979Z,56.10
2019-02-03T09:12:10.016Z,45.37
2019-02-03T09:14:38.759Z,65.80
2019-02-03T09:17:06.727Z,35.60
2019-02-03T09:19:34.500Z,37.90
2019-02-03T09:22:02.162Z,42.23
2019-02-03T09:24:30.817Z,66.77
2019-02-03T09:26:59.031Z,38.00
2019-02-03T09:29:27.076Z,42.40
2019-02-03T09:31:54.992Z,38.77
2019-02-03T09:34:22.948Z,39.10
2019-02-03T09:36:51.145Z,38.80
2019-02-03T09:39:19.082Z,31.20
2019-02-03T09:41:46.796Z,36.13
2019-02-03T09:44:15.070Z,32.20
2019-02-03T09:46:42.746Z,32.90
2019-02-03T09:49:10.654Z,57.33
2019-02-03T09:51:38.374Z,30.77
2019-02-03T09:54:06.337Z,32.43
2019-02-03T09:56:34.551Z,31.00
2019-02-03T09:59:02.572Z,31.37
2019-02-03T10:01:30.609Z,32.67
2019-02-03T10:03:59.147Z,79.73
2019-02-03T10:06:28.274Z,26.00
2019-02-03T10:08:56.625Z,32.37
2019-02-03T10:11:24.915Z,30.83
2019-02-03T10:13:52.932Z,29.07
2019-02-03T10:16:21.299Z,43.03
2019-02-03T10:18:49.786Z,27.10
2019-02-03T10:21:17.568Z,29.63
2019-02-03T10:23:45.661Z,32.37
2019-02-03T10:26:13.883Z,20.20
2019-02-03T10:28:41.582Z,25.33
2019-02-03T10:31:09.474Z,46.50
2019-02-03T10:33:37.409Z,29.37
2019-02-03T10:36:05.429Z,27.67
2019-02-03T10:38:33.098Z,28.77
2019-02-03T10:41:01.553Z,59.30
2019-02-03T10:43:29.277Z,24.10
2019-02-03T10:45:57.564Z,17.13
2019-02-03T10:48:25.505Z,28.07
2019-02-03T10:50:53.632Z,26.00
2019-02-03T10:53:22.069Z,21.37
2019-02-03T10:55:50.340Z,23.43
2019-02-03T10:58:18.305Z,24.93
2019-02-03T11:00:46.492Z,20.90
2019-02-03T11:03:14.441Z,32.93
2019-02-03T11:05:46.241Z,17.97
2019-02-03T11:08:14.789Z,40.23
2019-02-03T11:10:42.536Z,36.77
2019-02-03T11:13:10.421Z,42.23
2019-02-03T11:15:38.468Z,22.77
2019-02-03T11:18:06.597Z,22.27
2019-02-03T11:20:35.190Z,24.60
2019-02-03T11:23:03.712Z,29.50
2019-02-03T11:25:31.775Z,21.10
2019-02-03T11:27:59.756Z,26.03
2019-02-03T11:30:27.992Z,23.13
2019-02-03T11:33:04.838Z,26.43
2019-02-03T11:35:25.725Z,22.93
2019-02-03T11:37:53.758Z,26.40
2019-02-03T11:40:22.520Z,24.53
2019-02-03T11:42:50.372Z,28.00
2019-02-03T11:45:22.507Z,19.13
2019-02-03T11:47:50.704Z,17.10
2019-02-03T11:50:19.505Z,19.80
2019-02-03T11:52:48.094Z,16.00
2019-02-03T11:55:16.464Z,16.50
2019-02-03T11:57:44.398Z,19.07
2019-02-03T12:00:14.301Z,15.77
2019-02-03T12:02:42.445Z,17.90
2019-02-03T12:05:10.396Z,14.80
2019-02-03T12:07:38.709Z,15.33
2019-02-03T12:10:07.491Z,15.00
2019-02-03T12:12:35.708Z,11.10
2019-02-03T12:15:03.662Z,10.40
2019-02-03T12:17:31.864Z,11.07
2019-02-03T12:20:00.277Z,7.93
2019-02-03T12:22:28.033Z,12.17
2019-02-03T12:24:56.193Z,8.37
2019-02-03T12:27:24.445Z,6.20
2019-02-03T12:29:52.387Z,9.23
2019-02-03T12:32:20.668Z,6.17
2019-02-03T12:34:48.585Z,6.23
2019-02-03T12:37:17.010Z,7.07
2019-02-03T12:39:45.178Z,4.63
2019-02-03T12:42:13.704Z,6.03
2019-02-03T12:44:41.652Z,6.43
2019-02-03T12:47:09.568Z,4.10
2019-02-03T12:49:37.783Z,8.53
2019-02-03T12:52:05.830Z,3.77
2019-02-03T12:54:33.493Z,5.03
2019-02-03T12:57:01.147Z,5.87
2019-02-03T12:59:29.068Z,6.73
2019-02-03T13:01:56.983Z,4.70
2019-02-03T13:04:24.638Z,4.93
2019-02-03T13:06:52.456Z,5.30
2019-02-03T13:09:20.366Z,3.40
2019-02-03T13:11:48.278Z,3.40
2019-02-03T13:14:16.270Z,4.00
2019-02-03T13:16:44.230Z,4.33
2019-02-03T13:19:15.502Z,4.83
2019-02-03T13:21:42.634Z,3.10
2019-02-03T13:24:10.589Z,3.33
2019-02-03T13:26:39.041Z,5.10
2019-02-03T13:29:07.285Z,3.00
2019-02-03T13:31:34.941Z,2.50
2019-02-03T13:34:03.016Z,12.63
2019-02-03T13:36:31.615Z,5.10
2019-02-03T13:39:00.085Z,3.27
2019-02-03T13:41:27.977Z,3.07
2019-02-03T13:43:55.900Z,2.57
2019-02-03T13:46:23.844Z,4.73
2019-02-03T13:48:51.790Z,5.77
2019-02-03T13:51:20.262Z,2.90
2019-02-03T13:53:48.463Z,2.90
2019-02-03T13:56:16.640Z,7.70
2019-02-03T13:58:44.378Z,3.10
2019-02-03T14:01:12.296Z,3.00
2019-02-03T14:03:40.425Z,2.90
2019-02-03T14:06:08.600Z,4.87
2019-02-03T14:08:36.236Z,3.30
2019-02-03T14:11:04.190Z,3.10
2019-02-03T14:13:32.110Z,4.30
2019-02-03T14:15:59.777Z,3.70
2019-02-03T14:18:27.801Z,3.07
2019-02-03T14:20:56.134Z,2.80
2019-02-03T14:23:24.427Z,12.73
2019-02-03T14:25:52.657Z,8.97
2019-02-03T14:28:20.950Z,15.43
2019-02-03T14:30:51.203Z,21.17
2019-02-03T14:33:18.883Z,16.23
2019-02-03T14:35:47.340Z,10.57
2019-02-03T14:38:14.987Z,6.93
2019-02-03T14:40:42.651Z,4.17
2019-02-03T14:43:10.549Z,4.60
2019-02-03T14:45:38.237Z,2.40
2019-02-03T14:48:06.476Z,2.43
2019-02-03T14:50:34.762Z,3.17
2019-02-03T14:53:03.225Z,4.77
2019-02-03T14:55:32.345Z,6.10
2019-02-03T14:58:00.525Z,7.20
2019-02-03T15:00:29.416Z,7.60
2019-02-03T15:02:57.565Z,3.77
2019-02-03T15:05:25.732Z,6.30
2019-02-03T15:07:53.761Z,3.63
2019-02-03T15:10:21.672Z,2.43
2019-02-03T15:12:49.337Z,5.03
2019-02-03T15:15:18.249Z,3.57
2019-02-03T15:17:46.440Z,5.37
2019-02-03T15:20:16.009Z,2.57
2019-02-03T15:22:43.936Z,2.80
2019-02-03T15:25:12.125Z,2.87
2019-02-03T15:27:40.060Z,4.90
2019-02-03T15:30:19.215Z,6.10
2019-02-03T15:32:38.568Z,6.30
2019-02-03T15:35:06.703Z,3.80
2019-02-03T15:37:34.638Z,4.10
2019-02-03T15:40:02.613Z,3.87
2019-02-03T15:42:30.787Z,7.50
2019-02-03T15:44:59.038Z,6.60
2019-02-03T15:47:26.862Z,5.00
2019-02-03T15:49:55.082Z,7.97
2019-02-03T15:52:23.073Z,6.57
2019-02-03T15:54:51.002Z,7.67
2019-02-03T15:57:18.648Z,4.83
2019-02-03T15:59:46.335Z,5.03
2019-02-03T16:02:14.546Z,4.93
2019-02-03T16:04:42.857Z,10.43
2019-02-03T16:07:10.574Z,4.40
2019-02-03T16:09:38.462Z,5.23
2019-02-03T16:12:06.116Z,6.70
2019-02-03T16:14:34.265Z,8.50
2019-02-03T16:17:02.460Z,6.87
2019-02-03T16:19:31.040Z,5.67
2019-02-03T16:21:58.991Z,5.40
2019-02-03T16:24:26.909Z,6.17
2019-02-03T16:26:54.862Z,5.53
2019-02-03T16:29:22.578Z,8.33
2019-02-03T16:31:50.508Z,7.10
2019-02-03T16:34:18.411Z,6.40
2019-02-03T16:36:46.304Z,11.70
2019-02-03T16:39:13.940Z,9.97
2019-02-03T16:41:41.685Z,11.53
2019-02-03T16:44:09.592Z,16.13
2019-02-03T16:46:37.531Z,16.43
2019-02-03T16:49:05.434Z,15.80
2019-02-03T16:51:33.140Z,13.83
2019-02-03T16:54:01.667Z,10.87
2019-02-03T16:56:29.681Z,9.03
2019-02-03T16:58:57.987Z,8.80
2019-02-03T17:01:25.692Z,9.87
2019-02-03T17:03:53.608Z,11.37
2019-02-03T17:06:21.805Z,12.70
2019-02-03T17:08:50.158Z,8.83
2019-02-03T17:11:18.118Z,8.20
2019-02-03T17:13:46.116Z,7.97
2019-02-03T17:16:14.093Z,8.07
2019-02-03T17:18:42.297Z,4.17
2019-02-03T17:21:10.177Z,5.53
2019-02-03T17:23:40.097Z,5.13
2019-02-03T17:26:08.762Z,6.03
2019-02-03T17:28:36.676Z,12.27
2019-02-03T17:31:04.755Z,9.50
2019-02-03T17:33:32.660Z,9.20
2019-02-03T17:36:00.662Z,10.17
2019-02-03T17:38:28.965Z,5.67
2019-02-03T17:40:56.884Z,6.20
2019-02-03T17:43:25.234Z,4.87
2019-02-03T17:45:53.169Z,7.30
2019-02-03T17:48:21.465Z,4.70
2019-02-03T17:50:49.754Z,3.40
2019-02-03T17:53:17.664Z,3.50
2019-02-03T17:55:45.340Z,4.03
2019-02-03T17:58:13.289Z,3.77
2019-02-03T18:00:43.577Z,3.33
2019-02-03T18:03:11.538Z,6.07
2019-02-03T18:05:39.357Z,4.03
2019-02-03T18:08:07.638Z,3.63
2019-02-03T18:10:35.804Z,3.43
2019-02-03T18:13:03.685Z,3.53
2019-02-03T18:15:31.428Z,3.70
2019-02-03T18:17:59.450Z,4.97
2019-02-03T18:20:27.608Z,9.00
2019-02-03T18:22:55.276Z,3.93
2019-02-03T18:25:23.829Z,6.43
2019-02-03T18:27:51.994Z,3.77
2019-02-03T18:30:21.009Z,3.30
2019-02-03T18:32:48.853Z,4.73
2019-02-03T18:35:16.977Z,3.77
2019-02-03T18:37:44.912Z,5.17
2019-02-03T18:40:13.509Z,5.40
2019-02-03T18:42:41.729Z,3.30
2019-02-03T18:45:10.169Z,3.20
2019-02-03T18:47:37.867Z,4.23
2019-02-03T18:50:07.158Z,2.97
2019-02-03T18:52:35.091Z,3.10
2019-02-03T18:55:03.249Z,3.10
2019-02-03T18:57:31.489Z,2.67
2019-02-03T18:59:59.135Z,3.40
2019-02-03T19:02:27.068Z,5.10
2019-02-03T19:04:54.720Z,3.20
2019-02-03T19:07:22.403Z,3.50
2019-02-03T19:09:50.366Z,7.40
2019-02-03T19:12:18.564Z,3.83
2019-02-03T19:14:47.601Z,5.30
2019-02-03T19:17:15.745Z,7.33
2019-02-03T19:19:43.657Z,8.60
2019-02-03T19:22:12.130Z,8.83
2019-02-03T19:24:40.377Z,6.97
2019-02-03T19:27:09.197Z,4.10
2019-02-03T19:29:38.617Z,8.00
2019-02-03T19:32:13.479Z,4.43
2019-02-03T19:34:40.133Z,5.63
2019-02-03T19:37:08.640Z,3.43
2019-02-03T19:39:37.510Z,4.70
2019-02-03T19:42:05.440Z,4.63
2019-02-03T19:44:33.742Z,9.20
2019-02-03T19:47:01.445Z,6.20
2019-02-03T19:49:29.465Z,3.70
2019-02-03T19:51:57.429Z,3.87
2019-02-03T19:54:25.165Z,5.13
2019-02-03T19:56:53.106Z,4.20
2019-02-03T19:59:22.212Z,5.30
2019-02-03T20:01:50.690Z,9.00
2019-02-03T20:04:18.937Z,10.33
2019-02-03T20:06:46.893Z,12.70
2019-02-03T20:09:14.590Z,10.27
2019-02-03T20:11:42.947Z,7.57
2019-02-03T20:14:10.830Z,9.27
2019-02-03T20:16:39.544Z,5.10
2019-02-03T20:19:08.161Z,9.00
2019-02-03T20:21:35.880Z,11.03
2019-02-03T20:24:03.566Z,11.87
2019-02-03T20:26:31.234Z,7.63
2019-02-03T20:28:59.248Z,7.57
2019-02-03T20:31:27.758Z,13.73
2019-02-03T20:33:55.824Z,10.03
2019-02-03T20:36:23.790Z,10.50
2019-02-03T20:38:51.578Z,9.87
2019-02-03T20:41:20.102Z,12.80
2019-02-03T20:43:48.519Z,12.10
2019-02-03T20:46:16.767Z,9.77
2019-02-03T20:48:44.477Z,7.97
2019-02-03T20:51:12.719Z,10.10
2019-02-03T20:53:40.996Z,12.13
2019-02-03T20:56:08.961Z,7.87
2019-02-03T20:58:36.895Z,7.37
2019-02-03T21:01:05.893Z,9.53
2019-02-03T21:03:33.789Z,14.40
2019-02-03T21:06:01.453Z,7.90
2019-02-03T21:08:29.388Z,7.57
2019-02-03T21:10:57.410Z,13.10
2019-02-03T21:13:25.150Z,10.53
2019-02-03T21:15:53.418Z,10.10
2019-02-03T21:18:21.589Z,7.90
2019-02-03T21:20:49.269Z,9.43
2019-02-03T21:23:18.743Z,8.83
2019-02-03T21:25:46.720Z,9.67
2019-02-03T21:28:14.745Z,12.43
2019-02-03T21:30:42.777Z,10.60
2019-02-03T21:33:10.503Z,10.40
2019-02-03T21:35:38.836Z,15.03
2019-02-03T21:38:07.532Z,15.53
2019-02-03T21:40:39.557Z,14.77
2019-02-03T21:43:10.976Z,15.20
2019-02-03T21:45:44.731Z,16.03
2019-02-03T21:48:11.593Z,12.00
2019-02-03T21:50:41.428Z,14.90
2019-02-03T21:53:09.564Z,15.53
2019-02-03T21:55:37.242Z,14.20
2019-02-03T21:58:05.150Z,13.97
2019-02-03T22:00:33.314Z,15.80
2019-02-03T22:03:00.972Z,13.00
2019-02-03T22:05:29.095Z,10.97
2019-02-03T22:07:57.548Z,8.97
2019-02-03T22:10:26.717Z,7.57
2019-02-03T22:12:54.655Z,9.23
2019-02-03T22:15:22.593Z,10.10
2019-02-03T22:17:51.686Z,9.27
2019-02-03T22:20:20.050Z,9.97
2019-02-03T22:22:47.693Z,9.47
2019-02-03T22:25:15.898Z,13.53
2019-02-03T22:27:43.819Z,10.20
2019-02-03T22:30:13.429Z,9.07
2019-02-03T22:32:41.093Z,10.27
2019-02-03T22:35:09.743Z,11.03
2019-02-03T22:37:37.979Z,9.57
2019-02-03T22:40:06.466Z,8.63
2019-02-03T22:42:34.395Z,8.63
2019-02-03T22:45:02.368Z,8.70
2019-02-03T22:47:30.352Z,9.90
2019-02-03T22:49:58.101Z,11.57
2019-02-03T22:52:25.940Z,6.90
2019-02-03T22:54:54.455Z,8.47
2019-02-03T22:57:22.888Z,8.53
2019-02-03T22:59:51.096Z,11.13
2019-02-03T23:02:19.197Z,8.80
2019-02-03T23:04:46.856Z,8.13
2019-02-03T23:07:14.520Z,11.30
2019-02-03T23:09:42.725Z,10.83
2019-02-03T23:12:10.385Z,7.50
2019-02-03T23:14:38.681Z,7.60
2019-02-03T23:17:06.617Z,8.50
2019-02-03T23:19:34.235Z,7.83
2019-02-03T23:22:02.181Z,8.10
2019-02-03T23:24:30.095Z,8.77
2019-02-03T23:26:58.029Z,11.80
2019-02-03T23:29:26.201Z,9.57
2019-02-03T23:31:54.182Z,10.13
2019-02-03T23:34:22.152Z,10.00
2019-02-03T23:36:49.812Z,9.40
2019-02-03T23:39:17.801Z,9.03
2019-02-03T23:41:45.457Z,7.67
2019-02-03T23:44:13.380Z,11.27
2019-02-03T23:46:41.296Z,8.83
2019-02-03T23:49:09.524Z,8.93
2019-02-03T23:51:37.453Z,10.33
2019-02-03T23:54:05.189Z,8.40
2019-02-03T23:56:32.841Z,6.87
2019-02-03T23:59:00.746Z,10.60
